ENNA METAR and TAF weather

Enter ICAO airport designator
Station Type Date Time Source
ENNA METAR 2021/07/28 21:20 UTC NOAA

ENNA 282120Z AUTO 34011KT 9999 OVC028/// 09/07 Q1011 RMK WIND 1800FT 03010KT


Station Type Date Time Source
ENNA Decoded METAR 2021/07/28 21:20 UTC NOAA

Banak, Norway (ENNA) 70-04N 024-59E 8M
Jul 28, 2021 - 05:20 PM EDT / 2021.07.28 2120 UTC
Wind: from the NNW (340 degrees) at 13 MPH (11 KT):0
Visibility: greater than 7 mile(s):0
Sky conditions: overcast
Temperature: 48 F (9 C)
Dew Point: 44 F (7 C)
Relative Humidity: 87%
Pressure (altimeter): 29.85 in. Hg (1011 hPa)
ob: ENNA 282120Z AUTO 34011KT 9999 OVC028/// 09/07 Q1011 RMK WIND 1800FT 03010KT
cycle: 21

Station Type Date Time Source
ENNA TAF 2021/07/28 18:57 UTC NOAA

TAF TAF ENNA 281700Z 2818/2918 35012KT 9999 FEW010 BKN020
TEMPO 2818/2909 BKN012

Example: see airport list